createdAt,value
2022-10-28T00:01:25.145Z,1.00
2022-10-28T00:03:59.814Z,1.00
2022-10-28T00:06:34.542Z,1.00
2022-10-28T00:09:03.778Z,1.00
2022-10-28T00:11:34.996Z,1.00
2022-10-28T00:14:05.785Z,1.00
2022-10-28T00:16:36.900Z,1.00
2022-10-28T00:19:07.600Z,1.00
2022-10-28T00:21:38.116Z,1.00
2022-10-28T00:24:06.763Z,1.00
2022-10-28T00:26:36.744Z,1.00
2022-10-28T00:29:13.956Z,1.00
2022-10-28T00:31:41.932Z,1.00
2022-10-28T00:34:16.294Z,1.00
2022-10-28T00:36:46.126Z,1.00
2022-10-28T00:39:21.964Z,1.00
2022-10-28T00:41:55.530Z,1.00
2022-10-28T00:45:01.851Z,1.00
2022-10-28T00:47:52.609Z,1.00
2022-10-28T00:50:36.377Z,1.00
2022-10-28T00:53:16.770Z,39.90
2022-10-28T00:55:46.865Z,62.70
2022-10-28T00:58:15.666Z,98.50
2022-10-28T01:05:42.165Z,97.80
2022-10-28T01:08:09.990Z,99.90
2022-10-28T01:11:23.325Z,99.90
2022-10-28T01:14:21.818Z,99.90
2022-10-28T01:17:24.290Z,99.90
2022-10-28T01:20:37.820Z,99.90
2022-10-28T01:23:38.057Z,99.90
2022-10-28T01:27:01.007Z,99.90
2022-10-28T01:29:59.919Z,99.90
2022-10-28T01:32:51.507Z,99.90
2022-10-28T01:35:39.754Z,99.90
2022-10-28T01:38:50.626Z,99.90
2022-10-28T01:41:34.929Z,99.90
2022-10-28T01:44:41.863Z,99.90
2022-10-28T01:47:24.810Z,99.90
2022-10-28T01:50:01.541Z,99.90
2022-10-28T01:52:32.323Z,99.90
2022-10-28T01:55:21.502Z,99.90
2022-10-28T01:57:52.638Z,99.90
2022-10-28T02:00:19.959Z,99.90
2022-10-28T02:02:50.617Z,99.90
2022-10-28T02:05:42.254Z,99.90
2022-10-28T02:08:31.207Z,99.90
2022-10-28T02:11:01.037Z,99.90
2022-10-28T02:14:04.323Z,99.90
2022-10-28T02:16:49.761Z,99.90
2022-10-28T02:20:01.079Z,99.90
2022-10-28T02:22:46.204Z,99.90
2022-10-28T02:25:32.448Z,99.90
2022-10-28T02:28:08.001Z,99.90
2022-10-28T02:31:02.854Z,99.90
2022-10-28T02:33:35.777Z,99.90
2022-10-28T02:36:14.312Z,99.90
2022-10-28T02:38:50.696Z,99.90
2022-10-28T02:41:40.478Z,99.90
2022-10-28T02:44:19.036Z,99.90
2022-10-28T02:46:51.141Z,99.90
2022-10-28T02:49:18.232Z,99.90
2022-10-28T02:51:53.844Z,99.90
2022-10-28T02:54:45.292Z,99.90
2022-10-28T02:57:25.003Z,99.90
2022-10-28T03:00:00.695Z,99.90
2022-10-28T03:02:28.832Z,99.90
2022-10-28T03:04:55.912Z,99.90
2022-10-28T03:07:23.013Z,99.90
2022-10-28T03:09:49.989Z,99.90
2022-10-28T03:17:12.209Z,99.90
2022-10-28T03:22:06.838Z,99.90
2022-10-28T03:24:33.810Z,99.90
2022-10-28T03:27:00.857Z,99.90
2022-10-28T03:29:27.904Z,99.90
2022-10-28T03:31:54.953Z,99.90
2022-10-28T03:34:22.209Z,99.90
2022-10-28T03:36:49.162Z,99.90
2022-10-28T03:39:16.261Z,99.90
2022-10-28T03:41:43.268Z,99.90
2022-10-28T03:44:10.300Z,99.90
2022-10-28T03:46:37.654Z,99.90
2022-10-28T03:49:04.953Z,99.90
2022-10-28T03:53:59.653Z,99.90
2022-10-28T03:56:26.685Z,99.90
2022-10-28T03:58:53.683Z,99.90
2022-10-28T04:01:20.762Z,99.90
2022-10-28T04:03:47.882Z,99.90
2022-10-28T04:06:14.865Z,99.90
2022-10-28T04:08:41.863Z,99.90
2022-10-28T04:11:08.889Z,99.90
2022-10-28T04:13:36.014Z,99.90
2022-10-28T04:16:03.162Z,99.90
2022-10-28T04:20:57.770Z,99.90
2022-10-28T04:25:54.270Z,99.90
2022-10-28T04:28:24.095Z,99.90
2022-10-28T04:30:51.363Z,99.90
2022-10-28T04:33:18.394Z,99.90
2022-10-28T04:35:45.654Z,99.90
2022-10-28T04:38:14.209Z,99.90
2022-10-28T04:40:48.394Z,99.90
2022-10-28T04:43:16.579Z,99.90
2022-10-28T04:48:12.451Z,99.90
2022-10-28T04:53:12.712Z,99.90
2022-10-28T04:55:40.036Z,99.90
2022-10-28T04:58:09.115Z,99.90
2022-10-28T05:00:36.082Z,99.90
2022-10-28T05:03:03.758Z,99.90
2022-10-28T05:05:30.949Z,99.90
2022-10-28T05:10:25.990Z,99.90
2022-10-28T05:12:54.815Z,99.90
2022-10-28T05:17:49.825Z,99.90
2022-10-28T05:20:18.591Z,99.90
2022-10-28T05:22:48.652Z,99.90
2022-10-28T05:25:16.660Z,99.90
2022-10-28T05:27:47.036Z,99.90
2022-10-28T05:32:42.431Z,99.90
2022-10-28T05:35:10.409Z,99.90
2022-10-28T05:37:37.694Z,99.90
2022-10-28T05:45:00.173Z,99.90
2022-10-28T05:47:27.164Z,99.90
2022-10-28T05:49:54.118Z,99.90
2022-10-28T05:54:48.480Z,99.90
2022-10-28T05:57:15.465Z,99.90
2022-10-28T05:59:42.428Z,99.90
2022-10-28T06:02:15.509Z,99.90
2022-10-28T06:04:42.723Z,99.90
2022-10-28T06:07:10.121Z,99.90
2022-10-28T06:09:37.172Z,99.90
2022-10-28T06:12:06.726Z,99.90
2022-10-28T06:17:02.603Z,99.90
2022-10-28T06:19:29.575Z,99.90
2022-10-28T06:21:56.538Z,99.90
2022-10-28T06:26:51.044Z,99.90
2022-10-28T06:29:18.887Z,99.90
2022-10-28T06:31:47.591Z,99.90
2022-10-28T06:36:41.980Z,99.90
2022-10-28T06:39:09.048Z,99.90
2022-10-28T06:41:36.080Z,99.90
2022-10-28T06:44:03.357Z,99.90
2022-10-28T06:46:30.592Z,99.90
2022-10-28T06:48:59.115Z,99.90
2022-10-28T06:53:53.627Z,99.90
2022-10-28T06:58:53.790Z,99.90
2022-10-28T07:03:49.461Z,99.90
2022-10-28T07:08:47.412Z,99.90
2022-10-28T07:11:14.496Z,99.90
2022-10-28T07:13:42.526Z,99.90
2022-10-28T07:16:11.333Z,99.90
2022-10-28T07:18:38.308Z,99.90
2022-10-28T07:21:05.594Z,99.90
2022-10-28T07:23:32.955Z,99.90
2022-10-28T07:26:00.360Z,99.90
2022-10-28T07:28:29.040Z,99.90
2022-10-28T07:31:01.612Z,99.90
2022-10-28T07:33:29.126Z,99.90
2022-10-28T07:35:56.234Z,99.90
2022-10-28T07:38:23.199Z,99.90
2022-10-28T07:40:50.256Z,99.90
2022-10-28T07:43:17.426Z,99.90
2022-10-28T07:45:44.444Z,99.90
2022-10-28T07:48:11.495Z,99.90
2022-10-28T07:50:41.326Z,99.90
2022-10-28T07:53:08.531Z,99.90
2022-10-28T07:55:35.561Z,73.90
2022-10-28T07:58:02.585Z,1.00
2022-10-28T08:03:41.087Z,1.00
2022-10-28T08:06:13.208Z,1.00
2022-10-28T08:08:40.676Z,1.00
2022-10-28T08:11:19.741Z,1.00
2022-10-28T08:13:48.531Z,1.00
2022-10-28T08:16:16.132Z,99.90
2022-10-28T08:18:43.831Z,99.90
2022-10-28T08:21:12.691Z,99.90
2022-10-28T08:23:41.336Z,1.00
2022-10-28T08:26:08.550Z,1.00
2022-10-28T08:28:35.722Z,1.00
2022-10-28T08:31:09.316Z,1.00
2022-10-28T08:33:40.756Z,1.00
2022-10-28T08:36:12.154Z,1.00
2022-10-28T08:38:44.976Z,1.00
2022-10-28T08:41:28.343Z,99.90
2022-10-28T08:44:42.081Z,99.90
2022-10-28T08:48:11.356Z,1.00
2022-10-28T08:50:58.456Z,1.00
2022-10-28T08:53:39.482Z,1.00
2022-10-28T08:56:34.196Z,99.90
2022-10-28T08:59:06.351Z,99.90
2022-10-28T09:01:57.338Z,98.30
2022-10-28T09:04:43.789Z,1.00
2022-10-28T09:07:23.095Z,4.10
2022-10-28T09:09:52.928Z,1.00
2022-10-28T09:12:50.358Z,1.00
2022-10-28T09:15:55.850Z,1.00
2022-10-28T09:18:51.740Z,1.00
2022-10-28T09:21:45.430Z,1.00
2022-10-28T09:24:20.760Z,1.00
2022-10-28T09:30:03.630Z,99.90
2022-10-28T09:32:57.038Z,99.90
2022-10-28T09:35:32.258Z,1.00
2022-10-28T09:38:35.462Z,1.00
2022-10-28T09:41:34.147Z,99.90
2022-10-28T09:44:31.185Z,99.90
2022-10-28T09:47:02.239Z,99.90
2022-10-28T09:49:36.526Z,1.00
2022-10-28T09:52:37.548Z,1.00
2022-10-28T09:55:20.675Z,1.00
2022-10-28T09:57:47.920Z,1.00
2022-10-28T10:00:16.823Z,1.00
2022-10-28T10:02:45.176Z,1.00
2022-10-28T10:05:18.766Z,1.00
2022-10-28T10:08:06.651Z,1.00
2022-10-28T10:11:05.328Z,99.90
2022-10-28T10:13:44.131Z,99.90
2022-10-28T10:16:41.405Z,99.90
2022-10-28T10:19:13.785Z,99.90
2022-10-28T10:21:51.899Z,99.90
2022-10-28T10:24:34.523Z,99.90
2022-10-28T10:27:19.635Z,99.90
2022-10-28T10:29:53.259Z,99.90
2022-10-28T10:32:32.066Z,99.90
2022-10-28T10:35:06.652Z,99.90
2022-10-28T10:37:36.246Z,97.90
2022-10-28T10:40:33.871Z,90.90
2022-10-28T10:43:24.158Z,11.10
2022-10-28T10:46:15.628Z,29.40
2022-10-28T10:48:43.996Z,12.80
2022-10-28T10:52:01.085Z,1.00
2022-10-28T10:54:32.598Z,1.00
2022-10-28T10:57:17.129Z,1.00
2022-10-28T10:59:52.484Z,1.00
2022-10-28T11:02:36.451Z,1.00
2022-10-28T11:05:09.609Z,1.00
2022-10-28T11:07:45.445Z,1.00
2022-10-28T11:10:31.495Z,1.00
2022-10-28T11:13:24.118Z,1.00
2022-10-28T11:16:03.369Z,99.90
2022-10-28T11:18:44.025Z,99.90
2022-10-28T11:22:24.533Z,99.90
2022-10-28T11:25:35.725Z,99.90
2022-10-28T11:29:07.502Z,99.90
2022-10-28T11:32:19.206Z,99.90
2022-10-28T11:35:28.472Z,1.00
2022-10-28T11:38:33.278Z,1.00
2022-10-28T11:41:53.291Z,1.00
2022-10-28T11:44:53.558Z,1.00
2022-10-28T11:47:54.354Z,1.00
2022-10-28T11:50:48.513Z,1.00
2022-10-28T11:53:54.908Z,1.00
2022-10-28T11:56:37.370Z,99.90
2022-10-28T11:59:47.242Z,99.90
2022-10-28T12:02:58.709Z,99.90
2022-10-28T12:05:41.668Z,1.00
2022-10-28T12:08:51.687Z,1.00
2022-10-28T12:11:56.679Z,1.00
2022-10-28T12:15:11.248Z,99.90
2022-10-28T12:17:55.371Z,99.90
2022-10-28T12:20:55.520Z,99.90
2022-10-28T12:23:25.256Z,99.90
2022-10-28T12:25:57.291Z,99.90
2022-10-28T12:28:54.132Z,99.90
2022-10-28T12:31:40.267Z,99.90
2022-10-28T12:34:18.433Z,1.00
2022-10-28T12:36:52.417Z,1.00
2022-10-28T12:39:35.215Z,1.00
2022-10-28T12:42:28.995Z,99.90
2022-10-28T12:45:00.723Z,99.90
2022-10-28T12:48:06.428Z,99.90
2022-10-28T12:51:12.648Z,97.70
2022-10-28T12:54:25.092Z,37.90
2022-10-28T12:57:16.627Z,45.20
2022-10-28T13:00:00.064Z,1.00
2022-10-28T13:02:48.950Z,1.00
2022-10-28T13:05:25.232Z,1.00
2022-10-28T13:08:38.727Z,1.00
2022-10-28T13:11:20.356Z,1.00
2022-10-28T13:14:15.536Z,1.00
2022-10-28T13:17:22.497Z,1.00
2022-10-28T13:20:28.524Z,1.00
2022-10-28T13:23:04.124Z,1.00
2022-10-28T13:26:00.761Z,1.00
2022-10-28T13:28:35.653Z,1.00
2022-10-28T13:31:08.571Z,1.00
2022-10-28T13:33:39.047Z,1.00
2022-10-28T13:36:27.904Z,1.00
2022-10-28T13:39:11.989Z,1.00
2022-10-28T13:41:44.755Z,1.00
2022-10-28T13:44:29.823Z,1.00
2022-10-28T13:47:03.315Z,1.00
2022-10-28T13:49:38.226Z,99.90
2022-10-28T13:52:08.118Z,99.90
2022-10-28T13:54:44.098Z,99.90
2022-10-28T13:57:27.422Z,99.90
2022-10-28T14:00:03.807Z,99.90
2022-10-28T14:02:42.376Z,99.90
2022-10-28T14:05:17.939Z,99.90
2022-10-28T14:08:00.454Z,1.00
2022-10-28T14:10:36.034Z,99.90
2022-10-28T14:13:18.032Z,99.90
2022-10-28T14:15:48.050Z,99.90
2022-10-28T14:18:41.509Z,99.90
2022-10-28T14:21:02.625Z,99.90
2022-10-28T14:23:29.519Z,99.90
2022-10-28T14:26:04.189Z,99.90
2022-10-28T14:28:31.053Z,99.90
2022-10-28T14:31:14.371Z,99.90
2022-10-28T14:33:44.356Z,99.90
2022-10-28T14:36:17.689Z,99.90
2022-10-28T14:38:53.291Z,99.90
2022-10-28T14:42:00.469Z,99.90
2022-10-28T14:45:40.877Z,99.90
2022-10-28T14:48:49.312Z,99.90
2022-10-28T14:51:25.594Z,99.90
2022-10-28T14:53:58.972Z,99.90
2022-10-28T14:56:29.907Z,99.90
2022-10-28T14:59:33.162Z,99.90
2022-10-28T15:02:14.066Z,99.90
2022-10-28T15:04:45.067Z,99.90
2022-10-28T15:07:17.496Z,99.90
2022-10-28T15:09:50.443Z,99.90
2022-10-28T15:12:19.044Z,99.90
2022-10-28T15:14:55.992Z,99.90
2022-10-28T15:17:39.197Z,99.90
2022-10-28T15:20:24.983Z,99.90
2022-10-28T15:22:54.451Z,99.90
2022-10-28T15:25:23.258Z,99.90
2022-10-28T15:27:54.254Z,99.90
2022-10-28T15:30:26.473Z,99.90
2022-10-28T15:33:26.796Z,99.90
2022-10-28T15:38:40.875Z,99.90
2022-10-28T15:41:22.813Z,99.90
2022-10-28T15:43:59.142Z,99.90
2022-10-28T15:46:27.717Z,99.90
2022-10-28T15:48:58.627Z,99.90
2022-10-28T15:51:27.250Z,99.90
2022-10-28T15:54:11.434Z,99.90
2022-10-28T15:56:57.881Z,99.90
2022-10-28T15:59:26.628Z,99.90
2022-10-28T16:01:55.972Z,99.90
2022-10-28T16:07:06.694Z,99.90
2022-10-28T16:09:43.552Z,99.90
2022-10-28T16:12:26.381Z,99.90
2022-10-28T16:15:01.158Z,99.90
2022-10-28T16:17:33.573Z,99.90
2022-10-28T16:20:20.699Z,99.90
2022-10-28T16:22:48.352Z,99.90
2022-10-28T16:25:20.791Z,99.90
2022-10-28T16:27:50.675Z,99.90
2022-10-28T16:32:48.912Z,62.60
2022-10-28T16:37:54.663Z,63.40
2022-10-28T16:43:26.712Z,71.90
2022-10-28T16:45:56.807Z,81.20
2022-10-28T16:48:28.733Z,99.90
2022-10-28T16:51:19.160Z,99.90
2022-10-28T16:56:18.288Z,99.90
2022-10-28T16:58:46.094Z,99.90
2022-10-28T17:01:20.123Z,99.90
2022-10-28T17:14:01.848Z,99.90
2022-10-28T17:18:56.251Z,99.90
2022-10-28T17:23:50.651Z,99.90
2022-10-28T17:26:17.833Z,99.90
2022-10-28T17:28:44.834Z,99.90
2022-10-28T17:31:11.881Z,99.90
2022-10-28T17:33:38.890Z,99.90
2022-10-28T17:36:08.558Z,99.90
2022-10-28T17:38:35.917Z,99.90
2022-10-28T17:41:02.949Z,99.90
2022-10-28T17:46:07.820Z,99.90
2022-10-28T17:48:35.153Z,99.90
2022-10-28T17:53:29.651Z,1.00
2022-10-28T17:56:03.239Z,1.00
2022-10-28T17:58:31.344Z,1.00
2022-10-28T18:01:07.492Z,99.90
2022-10-28T18:03:38.299Z,99.90
2022-10-28T18:06:11.373Z,99.90
2022-10-28T18:08:42.851Z,99.90
2022-10-28T18:11:14.169Z,99.90
2022-10-28T18:13:48.752Z,99.90
2022-10-28T18:16:23.519Z,99.90
2022-10-28T18:21:18.743Z,99.90
2022-10-28T18:23:52.670Z,99.90
2022-10-28T18:26:21.007Z,99.90
2022-10-28T18:28:48.991Z,99.90
2022-10-28T18:31:20.021Z,99.90
2022-10-28T18:33:47.557Z,99.90
2022-10-28T18:36:19.692Z,99.90
2022-10-28T18:38:47.325Z,99.90
2022-10-28T18:41:25.116Z,99.90
2022-10-28T18:43:59.463Z,99.90
2022-10-28T18:46:29.117Z,99.90
2022-10-28T18:48:57.457Z,99.90
2022-10-28T18:51:25.020Z,99.90
2022-10-28T18:53:52.515Z,99.90
2022-10-28T18:56:24.450Z,99.90
2022-10-28T18:58:52.280Z,99.90
2022-10-28T19:01:27.183Z,99.90
2022-10-28T19:04:05.081Z,99.90
2022-10-28T19:06:33.998Z,1.00
2022-10-28T19:09:04.449Z,1.00
2022-10-28T19:11:34.091Z,1.00
2022-10-28T19:14:05.707Z,1.00
2022-10-28T19:16:34.603Z,1.00
2022-10-28T19:19:04.753Z,1.00
2022-10-28T19:26:27.857Z,1.00
2022-10-28T19:31:26.582Z,1.00
2022-10-28T19:33:54.775Z,1.00
2022-10-28T19:38:56.322Z,1.00
2022-10-28T19:41:30.022Z,1.00
2022-10-28T19:44:02.483Z,1.00
2022-10-28T19:46:33.832Z,1.00
2022-10-28T19:49:05.692Z,1.00
2022-10-28T19:51:39.011Z,1.00
2022-10-28T19:54:12.048Z,1.00
2022-10-28T19:56:40.285Z,1.00
2022-10-28T20:01:38.368Z,1.00
2022-10-28T20:06:38.615Z,8.30
2022-10-28T20:09:07.128Z,53.20
2022-10-28T20:11:39.312Z,99.90
2022-10-28T20:14:13.091Z,99.90
2022-10-28T20:16:42.553Z,99.90
2022-10-28T20:21:38.918Z,99.90
2022-10-28T20:24:08.285Z,99.90
2022-10-28T20:26:37.678Z,99.90
2022-10-28T20:29:06.656Z,57.50
2022-10-28T20:34:04.013Z,84.50
2022-10-28T20:36:36.782Z,98.00
2022-10-28T20:39:17.607Z,99.90
2022-10-28T20:41:47.647Z,99.90
2022-10-28T20:44:15.730Z,99.90
2022-10-28T20:46:45.041Z,99.90
2022-10-28T20:54:08.528Z,1.00
2022-10-28T20:56:38.733Z,1.00
2022-10-28T20:59:06.456Z,1.00
2022-10-28T21:01:38.081Z,1.00
2022-10-28T21:04:09.843Z,1.00
2022-10-28T21:06:38.612Z,1.00
2022-10-28T21:09:06.797Z,1.00
2022-10-28T21:11:34.260Z,99.90
2022-10-28T21:14:02.284Z,99.90
2022-10-28T21:16:30.623Z,99.90
2022-10-28T21:19:01.826Z,99.90
2022-10-28T21:21:30.264Z,99.90
2022-10-28T21:23:57.397Z,1.00
2022-10-28T21:28:53.986Z,99.90
2022-10-28T21:31:22.007Z,1.00
2022-10-28T21:36:22.860Z,1.00
2022-10-28T21:38:54.990Z,1.00
2022-10-28T21:41:24.242Z,1.00
2022-10-28T21:43:53.970Z,1.00
2022-10-28T21:46:24.181Z,58.00
2022-10-28T21:48:52.239Z,48.20
2022-10-28T21:51:19.305Z,99.90
2022-10-28T21:53:46.295Z,99.90
2022-10-28T21:56:21.139Z,1.00
2022-10-28T21:58:51.103Z,1.00
2022-10-28T22:01:24.309Z,99.90
2022-10-28T22:03:55.027Z,1.00
2022-10-28T22:06:22.809Z,44.20
2022-10-28T22:11:23.885Z,1.00
2022-10-28T22:14:01.094Z,1.00
2022-10-28T22:16:31.582Z,19.20
2022-10-28T22:19:02.065Z,99.90
2022-10-28T22:21:33.861Z,99.90
2022-10-28T22:24:01.043Z,99.90
2022-10-28T22:26:30.540Z,99.90
2022-10-28T22:31:31.289Z,99.90
2022-10-28T22:33:59.850Z,99.90
2022-10-28T22:36:29.833Z,99.90
2022-10-28T22:41:28.822Z,99.90
2022-10-28T22:44:00.122Z,99.90
2022-10-28T22:46:32.190Z,99.90
2022-10-28T22:56:25.509Z,1.00
2022-10-28T22:58:59.450Z,38.50
2022-10-28T23:01:29.651Z,99.90
2022-10-28T23:06:27.354Z,1.00
2022-10-28T23:08:54.918Z,1.00
2022-10-28T23:11:23.220Z,1.00
2022-10-28T23:13:55.629Z,1.00
2022-10-28T23:16:24.260Z,1.00
2022-10-28T23:18:54.954Z,1.00
2022-10-28T23:21:26.451Z,1.00
2022-10-28T23:24:00.027Z,1.00
2022-10-28T23:26:29.520Z,1.00
2022-10-28T23:28:59.645Z,1.00
2022-10-28T23:31:27.648Z,1.00
2022-10-28T23:33:55.757Z,65.90
2022-10-28T23:36:23.174Z,99.90
2022-10-28T23:41:18.841Z,99.90
2022-10-28T23:46:16.141Z,99.90
2022-10-28T23:48:43.238Z,1.00
2022-10-28T23:56:07.089Z,1.00
